Tucumcari ASC

2021-07-24 20:10:00

  • imperial
Date Time Air Temperature Relative Humidity Dewpoint Windchill Heat Index Wind Speed Wind Dir. Rain Solar Radiation Soil Temperature
2m 2m 3m 3m 10cm
US/Mountain F % F F F MPH deg in MJ/m^2 F
max avg avg
2021-07-23 20:25:00 80.8 32.9 48.9 80.8 80.8 4.7 7.8 6.2 188.3 186.9 0.00 0.0000000 89.8
2021-07-23 20:30:00 80.5 33.6 49.3 80.5 80.5 5.8 8.0 6.2 197.6 191.8 0.00 0.0000000 89.6
2021-07-23 20:35:00 80.3 33.9 49.3 80.3 80.3 6.0 7.8 5.9 199.3 191.4 0.00 0.0000000 89.4
2021-07-23 20:40:00 80.4 33.6 49.2 80.4 80.4 6.7 8.7 6.2 191.4 184.4 0.00 0.0000000 89.3
2021-07-23 20:45:00 80.1 34.4 49.5 80.1 80.1 7.1 8.0 6.0 181.5 189.1 0.00 0.0000000 89.2
2021-07-23 20:50:00 79.6 35.3 49.7 79.6 79.6 4.4 8.7 5.2 201.6 193.5 0.00 0.0000000 89.0
2021-07-23 20:55:00 78.7 36.7 50.0 78.7 78.7 4.4 6.7 4.6 187.3 193.6 0.00 0.0000000 88.8
2021-07-23 21:00:00 78.3 37.5 50.3 78.3 78.3 4.7 6.9 5.2 204.7 189.8 0.00 0.0000000 88.7
2021-07-23 21:05:00 77.9 38.0 50.2 77.9 77.9 5.5 6.5 5.4 156.7 184.8 0.00 0.0000000 88.6
2021-07-23 21:10:00 77.7 38.4 50.4 77.7 77.7 5.8 7.1 5.8 169.3 186.5 0.00 0.0000000 88.4
2021-07-23 21:15:00 77.3 39.2 50.6 77.3 77.3 4.9 7.4 5.7 196.9 188.8 0.00 0.0000000 88.3
2021-07-23 21:20:00 77.0 39.8 50.7 77.0 77.0 4.4 7.6 5.3 198.5 181.9 0.00 0.0000000 88.1
2021-07-23 21:25:00 76.4 41.6 51.3 76.4 76.4 4.7 6.7 4.5 151.9 173.5 0.00 0.0000000 88.0
2021-07-23 21:30:00 75.5 43.1 51.5 75.5 75.5 2.6 4.0 3.3 132.2 156.7 0.00 0.0000000 87.8
2021-07-23 21:35:00 74.8 43.9 51.4 74.8 74.8 3.5 3.7 3.0 122.3 116.4 0.00 0.0000000 87.7
2021-07-23 21:40:00 75.1 42.6 50.8 75.1 75.1 3.7 6.0 3.8 132.5 118.7 0.00 0.0000000 87.5
2021-07-23 21:45:00 75.4 41.9 50.7 75.4 75.4 2.1 4.7 3.2 132.4 136.6 0.00 0.0000000 87.4
2021-07-23 21:50:00 75.2 42.3 50.7 75.2 75.2 3.1 3.1 2.3 174.4 144.4 0.00 0.0000000 87.3
2021-07-23 21:55:00 75.3 42.7 51.0 75.3 75.3 5.5 5.5 3.0 180.1 170.3 0.00 0.0000000 87.1
2021-07-23 22:00:00 74.6 46.0 52.5 74.6 74.6 4.4 6.0 3.6 315.3 243.8 0.00 0.0000000 87.0
2021-07-23 22:05:00 73.5 46.6 51.8 73.5 73.5 0.8 4.7 2.9 344.5 322.6 0.00 0.0000000 86.8
2021-07-23 22:10:00 73.9 45.9 51.7 73.9 73.9 2.6 2.8 1.6 222.3 254.8 0.00 0.0000000 86.7
2021-07-23 22:15:00 74.2 45.4 51.7 74.2 74.2 0.8 2.6 1.6 165.3 231.8 0.00 0.0000000 86.5
2021-07-23 22:20:00 74.2 45.3 51.7 74.2 74.2 3.0 3.0 1.3 200.1 179.5 0.00 0.0000000 86.4
2021-07-23 22:25:00 74.3 45.3 51.8 74.3 74.3 2.1 2.6 1.8 159.3 164.3 0.00 0.0000000 86.3
2021-07-23 22:30:00 74.3 45.6 51.9 74.3 74.3 2.4 2.6 2.0 181.6 189.5 0.00 0.0000000 86.2
2021-07-23 22:35:00 74.4 45.4 51.9 74.4 74.4 2.1 3.3 2.3 156.9 162.6 0.00 0.0000000 86.1
2021-07-23 22:40:00 74.2 46.1 52.2 74.2 74.2 2.8 2.8 2.4 151.5 156.6 0.00 0.0000000 85.9
2021-07-23 22:45:00 73.9 47.3 52.5 73.9 73.9 2.2 3.0 2.4 152.2 151.0 0.00 0.0000000 85.8
2021-07-23 22:50:00 73.4 48.2 52.6 73.4 73.4 2.2 2.6 2.2 158.8 150.3 0.00 0.0000000 85.7
2021-07-23 22:55:00 73.1 48.9 52.7 73.1 73.1 1.9 3.1 2.5 133.0 144.9 0.00 0.0000000 85.6
2021-07-23 23:00:00 72.7 49.5 52.7 72.7 72.7 1.5 2.2 1.8 85.2 113.6 0.00 0.0000000 85.5
2021-07-23 23:05:00 72.8 49.2 52.6 72.8 72.8 0.0 1.5 0.9 115.2 91.8 0.00 0.0000000 85.3
2021-07-23 23:10:00 73.0 48.7 52.5 73.0 73.0 0.0 1.7 0.6 163.2 124.7 0.00 0.0000000 85.2
2021-07-23 23:15:00 73.3 48.3 52.6 73.3 73.3 0.0 1.3 0.4 135.1 179.7 0.00 0.0000000 85.1
2021-07-23 23:20:00 73.1 48.3 52.4 73.1 73.1 0.0 0.0 0.0 136.7 0.0 0.00 0.0000000 85.0
2021-07-23 23:25:00 72.0 51.9 53.4 72.0 72.0 3.0 6.9 2.6 349.7 336.2 0.00 0.0000000 84.8
2021-07-23 23:30:00 72.2 51.6 53.3 72.2 72.2 2.8 3.1 2.6 15.9 8.8 0.00 0.0000000 84.7
2021-07-23 23:35:00 72.0 51.5 53.2 72.0 72.0 2.4 3.7 3.2 344.9 6.5 0.00 0.0000000 84.6
2021-07-23 23:40:00 71.8 51.5 53.0 71.8 71.8 3.3 3.8 2.9 2.5 353.0 0.00 0.0000000 84.5
2021-07-23 23:45:00 72.0 51.3 53.1 72.0 72.0 3.0 3.1 2.6 336.2 354.1 0.00 0.0000000 84.4
2021-07-23 23:50:00 71.8 52.2 53.3 71.8 71.8 1.9 2.8 2.5 344.4 338.5 0.00 0.0000000 84.3
2021-07-23 23:55:00 71.9 50.6 52.6 71.9 71.9 3.7 3.7 2.8 335.1 342.1 0.00 0.0000000 84.2
2021-07-24 00:00:00 72.3 49.7 52.5 72.3 72.3 3.1 3.8 3.5 305.5 324.1 0.00 0.0000000 84.1
2021-07-24 00:05:00 72.8 48.4 52.2 72.8 72.8 2.1 3.3 2.9 335.2 320.6 0.00 0.0000000 83.9
2021-07-24 00:10:00 73.0 47.9 52.1 73.0 73.0 2.1 2.2 1.9 316.5 325.8 0.00 0.0000000 83.8
2021-07-24 00:15:00 73.3 47.3 52.0 73.3 73.3 3.0 3.0 2.4 310.4 312.9 0.00 0.0000000 83.8
2021-07-24 00:20:00 73.3 48.2 52.5 73.3 73.3 3.7 3.7 3.4 280.3 300.4 0.00 0.0000000 83.6
2021-07-24 00:25:00 72.8 51.5 53.8 72.8 72.8 3.8 4.2 3.9 263.5 269.3 0.00 0.0000000 83.5
2021-07-24 00:30:00 72.0 52.1 53.5 72.0 72.0 4.4 4.4 4.0 263.5 261.3 0.00 0.0000000 83.4
2021-07-24 00:35:00 71.8 51.7 53.1 71.8 71.8 2.8 4.2 3.2 257.8 264.3 0.00 0.0000000 83.3
2021-07-24 00:40:00 70.3 59.1 55.4 70.3 70.3 3.5 3.5 2.4 104.5 139.4 0.00 0.0000000 83.2
2021-07-24 00:45:00 68.5 63.3 55.5 68.5 68.5 1.7 3.3 2.7 31.7 92.2 0.00 0.0000000 83.1
2021-07-24 00:50:00 68.3 61.4 54.5 68.3 68.3 1.5 2.6 2.1 44.3 29.7 0.00 0.0000000 83.0
2021-07-24 00:55:00 69.1 59.7 54.5 69.1 69.1 2.2 2.4 2.0 56.1 74.7 0.00 0.0000000 82.9
2021-07-24 01:00:00 69.7 58.2 54.4 69.7 69.7 2.8 3.0 2.5 66.6 69.6 0.00 0.0000000 82.8
2021-07-24 01:05:00 69.7 56.8 53.7 69.7 69.7 3.5 3.5 2.5 75.8 77.8 0.00 0.0000000 82.7
2021-07-24 01:10:00 69.6 57.5 54.0 69.6 69.6 2.8 3.5 3.1 90.0 86.0 0.00 0.0000000 82.7
2021-07-24 01:15:00 69.8 57.5 54.1 69.8 69.8 1.9 3.0 2.3 95.2 99.5 0.00 0.0000000 82.5
2021-07-24 01:20:00 69.6 57.8 54.1 69.6 69.6 0.0 2.1 1.3 67.9 78.8 0.00 0.0000000 82.5
2021-07-24 01:25:00 69.7 57.6 54.1 69.7 69.7 3.0 3.0 1.3 113.6 110.1 0.00 0.0000000 82.4
2021-07-24 01:30:00 69.3 58.5 54.2 69.3 69.3 2.1 3.1 2.5 90.4 103.4 0.00 0.0000000 82.3
2021-07-24 01:35:00 69.2 60.3 54.8 69.2 69.2 0.0 2.4 1.1 333.5 81.3 0.00 0.0000000 82.2
2021-07-24 01:40:00 68.7 62.0 55.2 68.7 68.7 0.0 2.6 0.8 118.6 311.7 0.00 0.0000000 82.1
2021-07-24 01:45:00 68.8 60.1 54.4 68.8 68.8 0.0 2.8 1.6 72.4 100.7 0.00 0.0000000 82.0
2021-07-24 01:50:00 69.0 59.9 54.4 69.0 69.0 2.2 2.2 1.3 52.3 42.7 0.00 0.0000000 81.9
2021-07-24 01:55:00 69.7 58.7 54.6 69.7 69.7 0.0 2.6 1.0 133.1 77.4 0.00 0.0000000 81.8
2021-07-24 02:00:00 69.2 61.2 55.3 69.2 69.2 1.2 2.8 1.1 251.4 271.0 0.00 0.0000000 81.7
2021-07-24 02:05:00 69.3 60.1 54.9 69.3 69.3 0.0 1.0 0.1 219.9 255.5 0.00 0.0000000 81.6
2021-07-24 02:10:00 69.7 59.2 54.9 69.7 69.7 1.3 2.8 1.9 255.6 248.1 0.00 0.0000000 81.5
2021-07-24 02:15:00 69.8 59.1 54.9 69.8 69.8 1.2 1.9 1.4 252.9 254.0 0.00 0.0000000 81.5
2021-07-24 02:20:00 69.9 58.8 54.8 69.9 69.9 0.0 1.2 0.2 286.3 263.2 0.00 0.0000000 81.4
2021-07-24 02:25:00 70.3 58.4 55.0 70.3 70.3 3.7 3.7 2.3 319.7 305.6 0.00 0.0000000 81.3
2021-07-24 02:30:00 69.8 59.7 55.1 69.8 69.8 3.3 3.8 3.5 324.8 327.4 0.00 0.0000000 81.2
2021-07-24 02:35:00 69.2 60.5 55.0 69.2 69.2 3.1 3.5 3.2 309.6 322.7 0.00 0.0000000 81.1
2021-07-24 02:40:00 69.2 60.2 54.8 69.2 69.2 3.3 3.3 3.0 281.2 295.5 0.00 0.0000000 81.0
2021-07-24 02:45:00 69.5 59.7 54.8 69.5 69.5 3.3 3.7 3.3 282.4 288.7 0.00 0.0000000 80.9
2021-07-24 02:50:00 69.2 59.9 54.6 69.2 69.2 3.8 4.0 3.6 305.6 303.5 0.00 0.0000000 80.8
2021-07-24 02:55:00 68.8 60.3 54.5 68.8 68.8 4.7 4.7 4.4 316.2 310.0 0.00 0.0000000 80.7
2021-07-24 03:00:00 68.7 61.2 54.8 68.7 68.7 4.0 4.7 4.1 283.5 293.2 0.00 0.0000000 80.6
2021-07-24 03:05:00 68.5 61.4 54.7 68.5 68.5 3.1 4.0 3.6 302.0 288.5 0.00 0.0000000 80.6
2021-07-24 03:10:00 68.8 59.0 53.9 68.8 68.8 3.1 3.5 3.2 304.1 319.2 0.00 0.0000000 80.5
2021-07-24 03:15:00 69.2 58.4 54.0 69.2 69.2 3.5 3.8 3.5 301.9 307.2 0.00 0.0000000 80.4
2021-07-24 03:20:00 69.2 58.8 54.1 69.2 69.2 4.2 4.2 3.8 291.7 296.1 0.00 0.0000000 80.3
2021-07-24 03:25:00 68.6 60.4 54.4 68.6 68.6 4.2 4.7 4.3 262.9 281.1 0.00 0.0000000 80.2
2021-07-24 03:30:00 68.2 60.3 54.0 68.2 68.2 3.0 4.6 4.0 239.7 254.9 0.00 0.0000000 80.1
2021-07-24 03:35:00 68.2 59.9 53.8 68.2 68.2 2.1 3.1 2.6 250.5 245.5 0.00 0.0000000 80.1
2021-07-24 03:40:00 68.6 58.9 53.7 68.6 68.6 2.4 3.1 2.6 226.1 230.3 0.00 0.0000000 80.0
2021-07-24 03:45:00 68.3 59.4 53.7 68.3 68.3 2.4 2.8 2.2 234.9 248.1 0.00 0.0000000 79.9
2021-07-24 03:50:00 68.3 60.1 54.0 68.3 68.3 1.5 2.6 2.1 223.5 229.7 0.00 0.0000000 79.8
2021-07-24 03:55:00 68.0 61.2 54.1 68.0 68.0 2.6 3.0 1.5 228.3 214.5 0.00 0.0000000 79.7
2021-07-24 04:00:00 66.9 65.2 54.8 66.9 66.9 3.0 4.2 3.2 164.4 218.3 0.00 0.0000000 79.7
2021-07-24 04:05:00 66.1 67.3 55.0 66.1 66.1 3.0 3.3 2.8 148.8 163.9 0.00 0.0000000 79.6
2021-07-24 04:10:00 65.6 68.5 55.0 65.6 65.6 0.0 2.8 1.9 142.0 151.0 0.00 0.0000000 79.5
2021-07-24 04:15:00 65.5 68.1 54.7 65.5 65.5 1.5 1.5 0.2 204.7 190.3 0.00 0.0000000 79.4
2021-07-24 04:20:00 65.7 67.8 54.8 65.7 65.7 2.6 2.8 1.7 287.6 252.0 0.00 0.0000000 79.3
2021-07-24 04:25:00 64.8 70.3 54.9 64.8 64.8 3.3 3.7 3.1 232.1 267.0 0.00 0.0000000 79.2
2021-07-24 04:30:00 64.9 69.6 54.7 64.9 64.9 1.7 3.8 2.6 138.1 205.8 0.00 0.0000000 79.1
2021-07-24 04:35:00 64.9 69.4 54.6 64.9 64.9 0.0 1.9 0.7 123.8 133.1 0.00 0.0000000 79.1
2021-07-24 04:40:00 64.9 68.3 54.2 64.9 64.9 0.0 0.8 0.0 256.5 183.4 0.00 0.0000000 79.0
2021-07-24 04:45:00 65.7 65.7 53.9 65.7 65.7 3.0 3.7 1.2 263.9 260.3 0.00 0.0000000 78.9
2021-07-24 04:50:00 65.8 65.4 53.9 65.8 65.8 3.1 3.5 3.0 258.7 256.9 0.00 0.0000000 78.9
2021-07-24 04:55:00 65.7 66.0 54.0 65.7 65.7 2.1 3.0 2.6 283.8 262.2 0.00 0.0000000 78.8
2021-07-24 05:00:00 65.6 65.7 53.8 65.6 65.6 1.5 2.4 1.9 316.1 284.3 0.00 0.0000000 78.7
2021-07-24 05:05:00 65.7 64.9 53.5 65.7 65.7 2.1 2.1 0.9 243.1 269.2 0.00 0.0000000 78.6
2021-07-24 05:10:00 65.8 65.0 53.7 65.8 65.8 1.7 2.4 2.1 194.5 223.7 0.00 0.0000000 78.5
2021-07-24 05:15:00 65.5 66.1 53.9 65.5 65.5 0.0 1.9 0.9 216.1 179.7 0.00 0.0000000 78.4
2021-07-24 05:20:00 65.4 66.4 53.9 65.4 65.4 0.0 1.5 0.4 229.9 240.2 0.00 0.0000000 78.4
2021-07-24 05:25:00 65.4 65.9 53.7 65.4 65.4 0.0 0.8 0.0 265.5 242.4 0.00 0.0000000 78.3
2021-07-24 05:30:00 65.3 66.1 53.7 65.3 65.3 0.0 0.0 0.0 213.0 0.0 0.00 0.0000000 78.2
2021-07-24 05:35:00 65.2 66.4 53.7 65.2 65.2 1.2 2.1 1.2 219.1 212.1 0.00 0.0000000 78.1
2021-07-24 05:40:00 65.2 66.5 53.7 65.2 65.2 3.5 3.5 1.8 209.0 217.9 0.00 0.0000000 78.0
2021-07-24 05:45:00 64.8 67.7 53.9 64.8 64.8 2.2 3.7 2.8 194.5 200.7 0.00 0.0000000 77.9
2021-07-24 05:50:00 64.5 69.4 54.2 64.5 64.5 3.1 3.1 2.5 109.2 155.7 0.00 0.0000000 77.9
2021-07-24 05:55:00 62.5 75.1 54.6 62.5 62.5 2.8 3.3 2.9 104.9 99.2 0.00 0.0000000 77.8
2021-07-24 06:00:00 62.2 75.5 54.4 62.2 62.2 1.7 2.8 2.0 70.5 83.6 0.00 0.0003485 77.7
2021-07-24 06:05:00 62.9 74.1 54.5 62.9 62.9 3.1 3.1 2.5 77.8 69.2 0.00 0.0013934 77.6
2021-07-24 06:10:00 63.1 73.0 54.3 63.1 63.1 0.0 3.0 1.6 36.1 67.8 0.00 0.0043358 77.6
2021-07-24 06:15:00 63.6 70.8 53.9 63.6 63.6 1.7 1.9 0.6 202.2 204.1 0.00 0.0072375 77.5
2021-07-24 06:20:00 64.1 70.5 54.3 64.1 64.1 1.0 1.7 0.8 98.8 184.4 0.00 0.0104608 77.4
2021-07-24 06:25:00 64.5 69.2 54.1 64.5 64.5 1.2 2.1 1.4 125.6 91.0 0.00 0.0139300 77.4
2021-07-24 06:30:00 64.3 70.6 54.6 64.3 64.3 2.2 3.0 2.2 105.3 106.4 0.00 0.0175744 77.3
2021-07-24 06:35:00 64.7 70.7 55.0 64.7 64.7 0.0 1.9 0.7 67.9 73.2 0.00 0.0214836 77.2
2021-07-24 06:40:00 65.5 68.1 54.7 65.5 65.5 0.0 1.5 0.2 206.3 224.7 0.00 0.0260306 77.2
2021-07-24 06:45:00 66.8 65.9 55.0 66.8 66.8 0.0 0.0 0.0 53.3 0.0 0.00 0.0303532 77.1
2021-07-24 06:50:00 67.3 65.3 55.2 67.3 67.3 0.0 1.5 0.4 28.7 43.9 0.00 0.0344552 77.1
2021-07-24 06:55:00 68.4 61.6 54.7 68.4 68.4 0.0 0.0 0.0 328.8 0.0 0.00 0.0388810 77.1
2021-07-24 07:00:00 69.2 61.0 55.1 69.2 69.2 0.0 0.0 0.0 224.8 0.0 0.00 0.0431414 77.1
2021-07-24 07:05:00 69.2 62.3 55.8 69.2 69.2 0.0 0.0 0.0 216.8 0.0 0.00 0.0471563 77.1
2021-07-24 07:10:00 69.2 63.1 56.1 69.2 69.2 0.0 0.0 0.0 218.9 0.0 0.00 0.0517680 77.1
2021-07-24 07:15:00 69.4 61.2 55.5 69.4 69.4 0.0 0.0 0.0 282.3 0.0 0.00 0.0567777 77.1
2021-07-24 07:20:00 69.6 61.4 55.7 69.6 69.6 0.0 0.0 0.0 267.0 0.0 0.00 0.0612774 77.1
2021-07-24 07:25:00 69.5 62.2 56.0 69.5 69.5 0.0 0.0 0.0 260.3 0.0 0.00 0.0664106 77.2
2021-07-24 07:30:00 69.6 61.3 55.7 69.6 69.6 3.0 3.7 2.4 250.5 248.2 0.00 0.0714532 77.2
2021-07-24 07:35:00 69.8 62.5 56.4 69.8 69.8 2.4 3.7 2.7 267.0 262.8 0.00 0.0758798 77.3
2021-07-24 07:40:00 70.1 59.9 55.5 70.1 70.1 3.5 4.4 3.1 261.8 259.6 0.00 0.0806869 77.4
2021-07-24 07:45:00 70.6 60.6 56.3 70.6 70.6 3.3 4.9 3.4 213.8 231.4 0.00 0.0855705 77.5
2021-07-24 07:50:00 70.8 59.2 55.9 70.8 70.8 3.5 5.5 3.8 241.6 233.6 0.00 0.0908399 77.5
2021-07-24 07:55:00 71.7 58.5 56.3 71.7 71.7 4.6 4.7 3.4 225.7 240.8 0.00 0.0959931 77.7
2021-07-24 08:00:00 72.0 56.8 55.9 72.0 72.0 3.8 5.5 4.2 224.3 228.3 0.00 0.1011864 77.8
2021-07-24 08:05:00 72.4 56.7 56.2 72.4 72.4 4.9 6.7 4.8 233.0 239.7 0.00 0.1067911 77.8
2021-07-24 08:10:00 72.6 56.8 56.4 72.6 72.6 4.9 6.9 5.4 275.8 241.6 0.00 0.1119472 78.0
2021-07-24 08:15:00 73.1 55.8 56.3 73.1 73.1 7.4 7.4 5.1 265.8 240.7 0.00 0.1173311 78.1
2021-07-24 08:20:00 72.9 57.2 56.8 72.9 72.9 6.0 8.8 6.4 237.0 250.6 0.00 0.1228308 78.2
2021-07-24 08:25:00 73.2 57.6 57.4 73.2 73.2 5.6 6.7 5.3 239.1 258.3 0.00 0.1281358 78.3
2021-07-24 08:30:00 73.7 56.1 57.1 73.7 73.7 5.1 8.1 6.1 258.0 255.1 0.00 0.1332545 78.4
2021-07-24 08:35:00 73.8 55.7 57.0 73.8 73.8 6.7 7.6 6.7 260.2 261.3 0.00 0.1387077 78.6
2021-07-24 08:40:00 74.2 54.7 56.9 74.2 74.2 7.4 8.0 6.8 251.2 257.8 0.00 0.1442890 78.7
2021-07-24 08:45:00 74.3 56.5 57.9 74.3 74.3 6.2 7.2 6.1 246.5 256.6 0.00 0.1494614 78.9
2021-07-24 08:50:00 75.2 54.6 57.7 75.2 75.2 7.2 8.1 6.3 207.5 253.4 0.00 0.1552230 79.1
2021-07-24 08:55:00 75.4 52.5 56.9 75.4 75.4 6.0 8.3 6.2 239.8 244.2 0.00 0.1607588 79.2
2021-07-24 09:00:00 75.5 52.7 57.0 75.5 75.5 4.9 7.2 5.8 278.0 255.8 0.00 0.1657862 79.4
2021-07-24 09:05:00 76.1 52.0 57.2 76.1 76.1 5.5 7.2 5.3 259.7 256.7 0.00 0.1704322 79.5
2021-07-24 09:10:00 76.6 51.5 57.4 76.6 76.6 5.5 6.9 4.8 278.1 247.6 0.00 0.1753319 79.7
2021-07-24 09:15:00 77.0 51.4 57.7 77.0 77.0 5.6 6.7 4.5 277.5 263.0 0.00 0.1805034 79.9
2021-07-24 09:20:00 77.3 48.8 56.6 77.3 77.3 5.8 7.1 4.8 201.8 234.8 0.00 0.1853361 80.2
2021-07-24 09:25:00 77.5 48.3 56.4 77.5 77.5 4.2 7.4 4.5 253.9 245.2 0.00 0.1901707 80.4
2021-07-24 09:30:00 77.9 49.3 57.3 77.9 77.9 4.2 7.1 4.6 251.2 257.8 0.00 0.1944839 80.6
2021-07-24 09:35:00 78.2 48.0 56.9 78.2 78.2 1.7 7.1 3.2 197.8 238.0 0.00 0.1987511 80.8
2021-07-24 09:40:00 78.3 48.4 57.2 78.3 78.3 4.7 5.8 3.8 235.4 210.9 0.00 0.2032955 81.1
2021-07-24 09:45:00 79.1 44.5 55.6 79.1 79.1 5.8 7.1 4.1 178.3 212.2 0.00 0.2083784 81.3
2021-07-24 09:50:00 79.6 44.4 56.0 79.6 79.6 3.3 4.7 3.1 190.8 142.4 0.00 0.2130504 81.5
2021-07-24 09:55:00 79.8 44.2 56.1 79.8 79.8 2.4 6.2 3.7 193.0 208.5 0.00 0.2175109 81.8
2021-07-24 10:00:00 80.1 43.8 56.1 80.1 80.3 1.9 4.9 2.8 208.8 207.5 0.00 0.2209310 82.1
2021-07-24 10:05:00 80.4 43.6 56.2 80.4 80.6 6.2 6.7 3.7 244.1 210.2 0.00 0.2253554 82.3
2021-07-24 10:10:00 80.1 43.6 56.0 80.1 80.3 3.5 4.9 3.2 227.4 231.6 0.00 0.2291975 82.6
2021-07-24 10:15:00 81.2 44.5 57.6 81.2 81.3 2.4 4.2 2.8 196.0 166.0 0.00 0.2337553 82.9
2021-07-24 10:20:00 81.5 42.8 56.7 81.5 81.3 6.0 6.3 4.0 200.7 190.8 0.00 0.2376263 83.2
2021-07-24 10:25:00 81.5 42.2 56.3 81.5 81.2 3.7 6.5 4.3 211.2 197.6 0.00 0.2413826 83.4
2021-07-24 10:30:00 81.5 41.8 56.1 81.5 81.3 3.7 7.1 4.6 149.1 183.6 0.00 0.2451621 83.7
2021-07-24 10:35:00 82.4 41.2 56.5 82.4 81.9 6.5 8.1 4.1 203.1 173.0 0.00 0.2495577 84.0
2021-07-24 10:40:00 82.1 40.9 56.0 82.1 81.7 2.2 6.3 3.7 247.1 223.4 0.00 0.2528021 84.3
2021-07-24 10:45:00 82.9 41.5 57.1 82.9 82.4 6.7 6.7 3.9 206.4 199.5 0.00 0.2563321 84.6
2021-07-24 10:50:00 83.5 40.0 56.6 83.5 83.5 5.1 6.5 3.4 220.1 229.3 0.00 0.2601033 84.9
2021-07-24 10:55:00 83.5 39.1 56.0 83.5 83.5 2.8 5.8 3.2 222.8 255.1 0.00 0.2629368 85.2
2021-07-24 11:00:00 83.8 36.4 54.3 83.8 83.8 5.8 6.9 5.3 180.2 169.8 0.00 0.2663342 85.5
2021-07-24 11:05:00 83.7 38.2 55.5 83.7 83.7 4.0 6.7 4.3 155.2 176.0 0.00 0.2694052 85.8
2021-07-24 11:10:00 84.4 36.3 54.8 84.4 84.4 4.0 5.3 3.6 123.7 164.2 0.00 0.2722939 86.1
2021-07-24 11:15:00 83.8 37.3 55.0 83.8 83.8 3.0 6.7 4.2 237.1 196.1 0.00 0.2742427 86.5
2021-07-24 11:20:00 85.1 36.3 55.4 85.1 85.1 1.9 2.6 1.6 196.4 202.4 0.00 0.2776131 86.8
2021-07-24 11:25:00 86.8 34.8 55.7 86.8 86.8 2.4 3.3 1.9 17.1 260.0 0.00 0.2804118 87.1
2021-07-24 11:30:00 85.9 31.8 52.5 85.9 85.9 4.0 9.4 5.4 199.4 211.6 0.00 0.2825287 87.4
2021-07-24 11:35:00 86.2 30.8 51.8 86.2 86.2 7.1 8.0 4.2 264.4 192.3 0.00 0.2854158 87.7
2021-07-24 11:40:00 86.4 27.3 48.7 86.4 86.4 3.8 6.3 4.6 243.3 255.2 0.00 0.2880549 88.0
2021-07-24 11:45:00 87.4 28.9 51.1 87.4 87.4 2.2 3.5 2.5 272.2 278.3 0.00 0.2897668 88.4
2021-07-24 11:50:00 86.2 33.3 54.0 86.2 86.2 4.6 9.7 5.9 185.3 201.4 0.00 0.2909684 88.7
2021-07-24 11:55:00 86.8 30.1 51.7 86.8 86.8 1.0 6.7 3.4 230.2 217.5 0.00 0.2929041 89.0
2021-07-24 12:00:00 87.4 31.2 53.3 87.4 87.4 4.7 5.8 3.8 311.3 245.6 0.00 0.2950846 89.3
2021-07-24 12:05:00 87.4 32.4 54.3 87.4 87.4 5.3 6.3 4.1 220.6 191.4 0.00 0.2961688 89.6
2021-07-24 12:10:00 86.6 33.2 54.3 86.6 86.6 5.5 8.1 6.1 113.0 154.1 0.00 0.2973136 89.9
2021-07-24 12:15:00 87.2 31.8 53.6 87.2 87.2 3.5 11.2 5.6 175.1 163.7 0.00 0.2991775 90.2
2021-07-24 12:20:00 87.4 30.9 53.0 87.4 87.4 2.6 8.0 3.1 295.0 286.4 0.00 0.2998561 90.5
2021-07-24 12:25:00 87.4 31.5 53.5 87.4 87.4 4.9 6.3 3.7 153.5 254.0 0.00 0.3012746 90.8
2021-07-24 12:30:00 87.9 30.2 52.8 87.9 87.9 8.8 10.3 6.9 191.9 170.5 0.00 0.3021946 91.1
2021-07-24 12:35:00 87.7 29.9 52.4 87.7 87.7 7.8 9.0 7.0 176.6 168.9 0.00 0.3033795 91.4
2021-07-24 12:40:00 88.0 29.0 51.7 88.0 88.0 4.4 8.3 6.9 136.8 162.8 0.00 0.3043243 91.7
2021-07-24 12:45:00 87.9 29.7 52.3 87.9 87.9 4.9 8.3 6.0 162.7 155.9 0.00 0.3038146 91.9
2021-07-24 12:50:00 88.9 28.7 52.2 88.9 88.9 3.1 6.7 3.8 187.8 215.0 0.00 0.3042791 92.2
2021-07-24 12:55:00 88.9 30.0 53.4 88.9 88.9 1.3 5.6 3.4 221.7 176.7 0.00 0.3035929 92.5
2021-07-24 13:00:00 90.0 30.2 54.5 90.0 90.0 5.8 12.2 4.9 177.1 188.5 0.00 0.3040693 92.8
2021-07-24 13:05:00 89.5 27.0 51.1 89.5 89.5 6.7 8.5 6.7 150.5 191.4 0.00 0.3046109 93.0
2021-07-24 13:10:00 88.9 27.6 51.2 88.9 88.9 8.0 10.5 7.6 164.0 151.4 0.00 0.3042904 93.3
2021-07-24 13:15:00 89.1 27.0 50.8 89.1 89.1 3.5 7.1 4.2 139.6 133.5 0.00 0.3039219 93.6
2021-07-24 13:20:00 90.0 27.3 51.8 90.0 90.0 3.0 6.0 3.3 126.1 120.6 0.00 0.3034076 93.8
2021-07-24 13:25:00 90.1 26.6 51.2 90.1 90.1 8.3 10.5 6.4 174.1 183.3 0.00 0.3023079 94.0
2021-07-24 13:30:00 90.2 26.9 51.6 90.2 90.2 8.0 9.4 5.4 153.8 191.3 0.00 0.3017448 94.3
2021-07-24 13:35:00 89.6 26.9 51.1 89.6 89.6 6.3 8.5 6.4 145.9 147.9 0.00 0.3002419 94.6
2021-07-24 13:40:00 89.2 26.0 49.9 89.2 89.2 3.8 10.1 7.1 161.8 184.4 0.00 0.2997849 94.8
2021-07-24 13:45:00 89.6 28.4 52.5 89.6 89.6 5.1 11.7 6.2 154.9 176.0 0.00 0.2991659 95.0
2021-07-24 13:50:00 90.1 26.2 50.8 90.1 90.1 7.8 10.5 7.0 182.5 166.9 0.00 0.2977047 95.2
2021-07-24 13:55:00 90.4 26.4 51.3 90.4 90.4 8.0 10.5 7.0 165.4 167.9 0.00 0.2966205 95.4
2021-07-24 14:00:00 91.1 26.9 52.4 91.1 91.1 8.7 10.8 6.8 190.7 162.7 0.00 0.2949505 95.5
2021-07-24 14:05:00 89.8 26.4 50.8 89.8 89.8 5.1 11.9 8.3 191.0 176.3 0.00 0.2926472 95.5
2021-07-24 14:10:00 90.8 26.0 51.2 90.8 90.8 6.2 7.6 5.4 167.2 158.1 0.00 0.2916060 95.6
2021-07-24 14:15:00 90.9 26.6 51.9 90.9 90.9 8.7 9.7 6.1 228.3 177.7 0.00 0.2895188 95.6
2021-07-24 14:20:00 90.3 25.6 50.3 90.3 90.3 6.0 13.5 9.2 166.6 191.5 0.00 0.2875827 95.7
2021-07-24 14:25:00 91.7 26.1 52.1 91.7 91.7 5.5 8.1 5.7 187.8 182.5 0.00 0.2854111 95.8
2021-07-24 14:30:00 91.9 25.3 51.4 91.9 91.9 4.4 9.6 5.6 271.4 212.6 0.00 0.2831943 95.8
2021-07-24 14:35:00 92.0 26.1 52.4 92.0 92.0 7.4 12.2 7.9 194.5 181.9 0.00 0.2806841 96.0
2021-07-24 14:40:00 90.8 27.3 52.6 90.8 90.8 7.8 13.3 8.7 192.2 193.5 0.00 0.2777867 96.1
2021-07-24 14:45:00 90.6 26.7 51.7 90.6 90.6 5.8 12.6 8.1 185.1 203.9 0.00 0.2752545 96.2
2021-07-24 14:50:00 90.8 25.8 51.0 90.8 90.8 10.8 11.5 8.6 179.2 180.3 0.00 0.2726770 96.4
2021-07-24 14:55:00 91.1 25.4 50.8 91.1 91.1 10.3 11.9 8.4 211.0 169.4 0.00 0.2696775 96.5
2021-07-24 15:00:00 90.9 26.3 51.5 90.9 90.9 11.0 14.4 10.1 212.9 191.0 0.00 0.2665801 96.7
2021-07-24 15:05:00 91.3 25.8 51.4 91.3 91.3 8.0 11.5 8.5 161.0 197.6 0.00 0.2635857 96.8
2021-07-24 15:10:00 91.1 25.7 51.2 91.1 91.1 6.5 11.0 7.2 155.3 157.8 0.00 0.2598456 96.9
2021-07-24 15:15:00 91.3 26.2 51.8 91.3 91.3 8.1 12.6 8.8 178.0 169.7 0.00 0.2565461 97.1
2021-07-24 15:20:00 90.8 25.1 50.2 90.8 90.8 7.8 12.1 8.9 161.2 169.7 0.00 0.2531666 97.2
2021-07-24 15:25:00 90.8 26.1 51.3 90.8 90.8 9.7 12.2 9.3 198.6 172.5 0.00 0.2497164 97.3
2021-07-24 15:30:00 90.8 25.7 50.9 90.8 90.8 6.7 10.6 7.8 201.0 183.0 0.00 0.2462027 97.4
2021-07-24 15:35:00 91.7 24.0 49.8 91.7 91.7 8.8 9.9 7.4 154.9 181.8 0.00 0.2426196 97.4
2021-07-24 15:40:00 90.9 25.0 50.2 90.9 90.9 6.0 10.3 7.1 118.0 156.4 0.00 0.2382132 97.5
2021-07-24 15:45:00 91.3 26.6 52.2 91.3 91.3 7.1 8.8 6.5 177.8 166.5 0.00 0.2340787 97.6
2021-07-24 15:50:00 91.2 26.7 52.3 91.2 91.2 8.3 11.5 8.4 176.7 177.9 0.00 0.2302799 97.6
2021-07-24 15:55:00 91.1 26.8 52.3 91.1 91.1 7.2 10.1 7.1 208.2 191.5 0.00 0.2261373 97.6
2021-07-24 16:00:00 90.9 26.8 52.2 90.9 90.9 4.7 11.5 7.1 173.3 178.2 0.00 0.2219149 97.6
2021-07-24 16:05:00 91.0 25.7 51.0 91.0 91.0 10.1 10.1 6.3 186.0 180.5 0.00 0.2172480 97.5
2021-07-24 16:10:00 91.3 25.2 50.8 91.3 91.3 8.1 9.9 7.1 206.1 191.8 0.00 0.2128905 97.5
2021-07-24 16:15:00 91.1 27.3 52.8 91.1 91.1 8.1 10.5 6.7 175.9 195.1 0.00 0.2083921 97.4
2021-07-24 16:20:00 90.9 26.1 51.5 90.9 90.9 3.1 12.1 6.8 176.1 200.0 0.00 0.2037591 97.3
2021-07-24 16:25:00 91.4 26.8 52.5 91.4 91.4 5.1 9.0 5.5 245.9 231.0 0.00 0.1999882 97.2
2021-07-24 16:30:00 91.1 26.4 51.8 91.1 91.1 4.9 9.2 6.4 171.0 170.6 0.00 0.1946510 97.2
2021-07-24 16:35:00 91.3 25.3 50.8 91.3 91.3 6.0 7.8 6.2 226.6 179.3 0.00 0.1898207 97.1
2021-07-24 16:40:00 90.9 26.5 51.8 90.9 90.9 4.4 7.8 5.5 180.4 188.4 0.00 0.1847422 97.1
2021-07-24 16:45:00 91.2 25.7 51.2 91.2 91.2 7.4 10.6 7.2 238.8 208.6 0.00 0.1803750 97.0
2021-07-24 16:50:00 91.0 26.0 51.3 91.0 91.0 8.0 8.7 6.9 228.7 210.9 0.00 0.1757493 97.0
2021-07-24 16:55:00 91.5 24.8 50.5 91.5 91.5 11.0 11.9 8.0 215.8 208.6 0.00 0.1714362 96.9
2021-07-24 17:00:00 90.8 24.9 50.0 90.8 90.8 8.8 10.5 8.4 196.4 205.4 0.00 0.1663042 96.9
2021-07-24 17:05:00 91.1 26.1 51.5 91.1 91.1 7.4 8.7 6.3 231.4 193.2 0.00 0.1610731 96.9
2021-07-24 17:10:00 91.2 24.7 50.2 91.2 91.2 6.9 10.1 7.3 188.1 198.1 0.00 0.1560813 96.8
2021-07-24 17:15:00 90.9 26.5 51.8 90.9 90.9 8.0 11.9 7.7 171.7 193.6 0.00 0.1508662 96.8
2021-07-24 17:20:00 91.1 27.2 52.6 91.1 91.1 4.4 9.2 6.9 200.2 192.3 0.00 0.1454180 96.7
2021-07-24 17:25:00 91.2 25.5 51.0 91.2 91.2 8.1 11.2 7.3 209.4 205.9 0.00 0.1402557 96.7
2021-07-24 17:30:00 91.1 26.1 51.5 91.1 91.1 6.5 9.4 6.6 199.8 216.6 0.00 0.1353023 96.7
2021-07-24 17:35:00 90.8 25.8 51.1 90.8 90.8 10.8 11.7 7.6 194.3 193.8 0.00 0.1298527 96.6
2021-07-24 17:40:00 90.4 26.3 51.2 90.4 90.4 8.1 9.7 7.7 186.2 185.9 0.00 0.1246528 96.5
2021-07-24 17:45:00 90.6 26.3 51.3 90.6 90.6 6.5 9.7 7.1 180.2 202.2 0.00 0.1196560 96.5
2021-07-24 17:50:00 90.3 26.4 51.2 90.3 90.3 8.3 9.9 6.7 188.5 191.1 0.00 0.1141836 96.4
2021-07-24 17:55:00 90.4 27.4 52.3 90.4 90.4 6.9 8.8 7.2 225.0 200.0 0.00 0.1092581 96.4
2021-07-24 18:00:00 90.3 26.0 50.8 90.3 90.3 4.7 11.2 6.6 164.4 190.7 0.00 0.1041661 96.3
2021-07-24 18:05:00 90.6 26.3 51.3 90.6 90.6 5.5 6.0 4.4 226.3 178.6 0.00 0.0988520 96.2
2021-07-24 18:10:00 90.3 24.9 49.6 90.3 90.3 8.1 8.8 6.9 193.8 195.7 0.00 0.0939297 96.1
2021-07-24 18:15:00 90.0 25.0 49.4 90.0 90.0 7.4 9.2 7.6 199.8 207.0 0.00 0.0891843 96.0
2021-07-24 18:20:00 90.1 25.6 50.1 90.1 90.1 5.6 8.3 6.2 205.3 203.0 0.00 0.0843767 95.9
2021-07-24 18:25:00 90.0 27.3 51.8 90.0 90.0 6.2 7.4 5.4 218.9 199.5 0.00 0.0790829 95.8
2021-07-24 18:30:00 89.8 27.1 51.5 89.8 89.8 5.5 10.3 5.9 223.3 209.2 0.00 0.0742360 95.7
2021-07-24 18:35:00 89.5 27.7 51.8 89.5 89.5 6.3 10.1 6.9 187.6 192.2 0.00 0.0690645 95.6
2021-07-24 18:40:00 89.2 28.9 52.7 89.2 89.2 6.0 7.6 5.4 187.6 194.5 0.00 0.0639896 95.5
2021-07-24 18:45:00 89.0 28.2 51.9 89.0 89.0 5.8 7.1 5.2 191.8 191.4 0.00 0.0592320 95.4
2021-07-24 18:50:00 88.7 29.4 52.8 88.7 88.7 6.0 6.3 4.8 172.6 187.1 0.00 0.0544295 95.3
2021-07-24 18:55:00 88.7 28.2 51.6 88.7 88.7 3.8 7.8 5.1 213.1 200.3 0.00 0.0499270 95.1
2021-07-24 19:00:00 88.6 29.2 52.5 88.6 88.6 4.2 6.2 4.3 204.9 202.4 0.00 0.0453320 95.0
2021-07-24 19:05:00 88.3 29.8 52.8 88.3 88.3 6.9 6.9 4.7 199.1 202.9 0.00 0.0409528 94.9
2021-07-24 19:10:00 88.1 29.9 52.6 88.1 88.1 4.0 7.2 4.5 221.2 207.6 0.00 0.0366528 94.8
2021-07-24 19:15:00 87.7 30.6 53.0 87.7 87.7 2.4 4.7 3.4 239.9 214.3 0.00 0.0322255 94.7
2021-07-24 19:20:00 87.4 30.4 52.5 87.4 87.4 4.0 4.9 3.4 182.0 197.1 0.00 0.0279326 94.5
2021-07-24 19:25:00 87.2 31.2 53.0 87.2 87.2 4.4 4.4 3.2 200.1 197.3 0.00 0.0237044 94.4
2021-07-24 19:30:00 86.8 31.1 52.6 86.8 86.8 2.8 3.8 3.1 182.5 195.1 0.00 0.0180603 94.3
2021-07-24 19:35:00 86.2 31.4 52.4 86.2 86.2 4.0 5.1 3.3 200.6 193.6 0.00 0.0085438 94.1
2021-07-24 19:40:00 85.9 32.0 52.6 85.9 85.9 3.1 3.8 3.4 189.8 194.5 0.00 0.0064937 93.9
2021-07-24 19:45:00 85.3 32.7 52.7 85.3 85.3 3.1 4.7 3.4 189.8 193.6 0.00 0.0029645 93.8
2021-07-24 19:50:00 85.1 32.7 52.5 85.1 85.1 5.5 5.5 3.7 195.9 192.8 0.00 0.0020022 93.7
2021-07-24 19:55:00 84.9 33.2 52.8 84.9 84.9 4.9 4.9 4.3 185.0 189.1 0.00 0.0014744 93.5
2021-07-24 20:00:00 84.5 33.9 53.0 84.5 84.5 3.7 5.5 4.4 150.7 189.9 0.00 0.0008339 93.3
2021-07-24 20:05:00 83.5 36.2 53.9 83.5 83.5 3.1 4.2 2.7 174.7 168.4 0.00 0.0000031 93.1
2021-07-24 20:10:00 83.0 36.8 53.9 83.0 83.0 3.0 3.7 2.9 153.7 162.0 0.00 0.0000000 93.0

Data is courtesy of the NM Climate Center. DO NOT USE IN LEGAL PROCEEDINGS.